createdAt,value
2018-02-09T00:01:09.162Z,116.80
2018-02-09T00:03:37.470Z,122.07
2018-02-09T00:06:05.007Z,120.65
2018-02-09T00:08:33.267Z,115.65
2018-02-09T00:11:00.767Z,124.97
2018-02-09T00:13:28.278Z,117.93
2018-02-09T00:15:55.783Z,118.43
2018-02-09T00:18:23.276Z,120.05
2018-02-09T00:20:50.771Z,112.82
2018-02-09T00:23:19.040Z,122.13
2018-02-09T00:25:47.315Z,115.20
2018-02-09T00:28:15.632Z,121.78
2018-02-09T00:30:43.876Z,118.03
2018-02-09T00:33:12.143Z,116.57
2018-02-09T00:35:40.409Z,115.00
2018-02-09T00:38:07.904Z,119.00
2018-02-09T00:40:35.417Z,119.82
2018-02-09T00:43:02.920Z,116.12
2018-02-09T00:45:30.494Z,109.22
2018-02-09T00:47:57.983Z,113.80
2018-02-09T00:50:25.491Z,107.03
2018-02-09T00:52:52.985Z,106.57
2018-02-09T00:55:20.487Z,105.60
2018-02-09T00:57:47.990Z,114.93
2018-02-09T01:00:15.549Z,110.68
2018-02-09T01:02:43.590Z,110.45
2018-02-09T01:05:11.857Z,107.30
2018-02-09T01:07:40.119Z,108.95
2018-02-09T01:10:07.619Z,104.85
2018-02-09T01:12:35.451Z,113.57
2018-02-09T01:15:02.939Z,108.60
2018-02-09T01:17:30.434Z,113.55
2018-02-09T01:19:57.934Z,112.82
2018-02-09T01:22:26.241Z,111.57
2018-02-09T01:24:53.739Z,109.32
2018-02-09T01:27:21.339Z,114.00
2018-02-09T01:29:49.601Z,116.45
2018-02-09T01:32:17.881Z,112.10
2018-02-09T01:34:46.158Z,108.22
2018-02-09T01:37:14.451Z,119.03
2018-02-09T01:39:42.007Z,122.15
2018-02-09T01:42:10.285Z,123.85
2018-02-09T01:44:37.804Z,117.90
2018-02-09T01:47:05.425Z,126.25
2018-02-09T01:49:32.908Z,116.22
2018-02-09T01:52:00.416Z,118.75
2018-02-09T01:54:28.676Z,121.82
2018-02-09T01:56:56.187Z,120.20
2018-02-09T01:59:23.679Z,116.90
2018-02-09T02:01:51.187Z,120.57
2018-02-09T02:04:18.727Z,121.05
2018-02-09T02:06:46.990Z,114.05
2018-02-09T02:09:15.252Z,119.28
2018-02-09T02:11:42.754Z,123.35
2018-02-09T02:14:10.259Z,124.40
2018-02-09T02:16:37.768Z,116.43
2018-02-09T02:19:05.259Z,115.50
2018-02-09T02:21:32.762Z,123.03
2018-02-09T02:24:01.015Z,123.15
2018-02-09T02:26:28.540Z,117.95
2018-02-09T02:28:56.032Z,116.85
2018-02-09T02:31:23.531Z,124.05
2018-02-09T02:33:51.024Z,113.25
2018-02-09T02:36:18.522Z,116.53
2018-02-09T02:38:46.007Z,119.72
2018-02-09T02:41:13.509Z,119.25
2018-02-09T02:43:40.998Z,119.53
2018-02-09T02:46:08.518Z,120.87
2018-02-09T02:48:36.010Z,125.85
2018-02-09T02:51:03.528Z,117.28
2018-02-09T02:53:31.032Z,123.25
2018-02-09T02:55:58.543Z,119.40
2018-02-09T02:58:26.038Z,118.80
2018-02-09T03:00:53.544Z,122.07
2018-02-09T03:03:21.042Z,114.30
2018-02-09T03:05:48.559Z,116.62
2018-02-09T03:08:16.063Z,123.13
2018-02-09T03:10:43.563Z,122.43
2018-02-09T03:13:11.823Z,115.95
2018-02-09T03:15:39.319Z,115.57
2018-02-09T03:18:06.820Z,112.05
2018-02-09T03:20:34.324Z,114.95
2018-02-09T03:23:01.829Z,118.20
2018-02-09T03:25:29.328Z,112.82
2018-02-09T03:27:57.588Z,109.30
2018-02-09T03:30:25.101Z,117.43
2018-02-09T03:32:52.600Z,116.32
2018-02-09T03:35:20.099Z,116.57
2018-02-09T03:37:47.587Z,117.65
2018-02-09T03:40:15.095Z,120.82
2018-02-09T03:42:43.357Z,116.88
2018-02-09T03:45:10.862Z,113.05
2018-02-09T03:47:38.378Z,111.78
2018-02-09T03:50:05.918Z,112.95
2018-02-09T03:52:33.420Z,117.32
2018-02-09T03:55:00.914Z,120.32
2018-02-09T03:57:28.431Z,122.82
2018-02-09T03:59:56.696Z,128.12
2018-02-09T04:02:24.958Z,125.35
2018-02-09T04:04:52.456Z,126.72
2018-02-09T04:07:19.956Z,130.98
2018-02-09T04:09:47.455Z,129.90
2018-02-09T04:12:15.724Z,126.35
2018-02-09T04:14:43.977Z,132.10
2018-02-09T04:17:11.483Z,135.85
2018-02-09T04:19:38.970Z,138.98
2018-02-09T04:22:06.474Z,137.90
2018-02-09T04:24:34.727Z,130.45
2018-02-09T04:27:02.256Z,133.85
2018-02-09T04:29:29.752Z,140.05
2018-02-09T04:31:57.256Z,135.48
2018-02-09T04:34:24.750Z,142.98
2018-02-09T04:36:52.293Z,146.40
2018-02-09T04:39:19.807Z,141.10
2018-02-09T04:41:48.080Z,147.95
2018-02-09T04:44:16.335Z,148.30
2018-02-09T04:46:43.839Z,146.95
2018-02-09T04:49:12.219Z,150.93
2018-02-09T04:51:39.732Z,148.82
2018-02-09T04:54:07.223Z,151.77
2018-02-09T04:56:34.731Z,144.80
2018-02-09T04:59:02.225Z,146.35
2018-02-09T05:01:30.491Z,152.23
2018-02-09T05:03:57.984Z,146.57
2018-02-09T05:06:25.507Z,154.23
2018-02-09T05:08:53.004Z,145.85
2018-02-09T05:11:21.415Z,156.77
2018-02-09T05:13:48.903Z,154.85
2018-02-09T05:16:16.427Z,148.87
2018-02-09T05:18:43.927Z,152.82
2018-02-09T05:21:12.241Z,155.90
2018-02-09T05:23:39.792Z,149.50
2018-02-09T05:26:07.299Z,154.57
2018-02-09T05:28:34.792Z,151.45
2018-02-09T05:31:03.071Z,153.10
2018-02-09T05:33:31.364Z,152.12
2018-02-09T05:35:59.619Z,146.30
2018-02-09T05:38:27.875Z,160.18
2018-02-09T05:40:55.388Z,155.63
2018-02-09T05:43:22.880Z,156.85
2018-02-09T05:45:50.384Z,156.25
2018-02-09T05:48:17.875Z,157.35
2018-02-09T05:50:45.391Z,153.43
2018-02-09T05:53:13.648Z,165.18
2018-02-09T05:55:41.153Z,158.43
2018-02-09T05:58:08.645Z,157.27
2018-02-09T06:00:36.160Z,160.60
2018-02-09T06:03:03.651Z,148.73
2018-02-09T06:05:31.161Z,168.75
2018-02-09T06:07:58.659Z,167.18
2018-02-09T06:10:26.159Z,166.90
2018-02-09T06:12:53.642Z,164.60
2018-02-09T06:15:21.190Z,171.37
2018-02-09T06:17:49.480Z,166.02
2018-02-09T06:20:16.996Z,176.25
2018-02-09T06:22:44.500Z,161.20
2018-02-09T06:25:12.003Z,167.90
2018-02-09T06:27:39.541Z,181.52
2018-02-09T06:30:07.063Z,172.13
2018-02-09T06:32:35.334Z,191.02
2018-02-09T06:35:03.587Z,177.32
2018-02-09T06:37:31.182Z,179.18
2018-02-09T06:39:58.677Z,174.93
2018-02-09T06:42:26.177Z,169.02
2018-02-09T06:44:54.446Z,180.75
2018-02-09T06:47:21.968Z,173.07
2018-02-09T06:49:49.484Z,172.82
2018-02-09T06:52:17.752Z,170.65
2018-02-09T06:54:46.000Z,169.40
2018-02-09T06:57:13.500Z,170.93
2018-02-09T06:59:41.053Z,170.73
2018-02-09T07:02:09.324Z,170.10
2018-02-09T07:04:37.604Z,166.88
2018-02-09T07:07:12.639Z,168.62
2018-02-09T07:09:40.903Z,178.35
2018-02-09T07:12:08.405Z,171.60
2018-02-09T07:14:35.940Z,175.02
2018-02-09T07:17:04.213Z,178.23
2018-02-09T07:19:32.492Z,169.43
2018-02-09T07:22:00.814Z,172.55
2018-02-09T07:24:28.317Z,167.82
2018-02-09T07:26:56.601Z,174.85
2018-02-09T07:29:24.870Z,168.43
2018-02-09T07:31:53.199Z,167.50
2018-02-09T07:34:20.755Z,172.25
2018-02-09T07:36:48.283Z,163.32
2018-02-09T07:39:15.772Z,169.32
2018-02-09T07:41:43.276Z,172.30
2018-02-09T07:44:10.768Z,168.98
2018-02-09T07:46:38.262Z,168.35
2018-02-09T07:49:05.756Z,175.77
2018-02-09T07:51:34.026Z,163.20
2018-02-09T07:54:01.524Z,163.65
2018-02-09T07:56:29.035Z,170.68
2018-02-09T07:58:56.525Z,163.68
2018-02-09T08:01:24.794Z,167.13
2018-02-09T08:03:53.142Z,167.45
2018-02-09T08:06:20.655Z,169.13
2018-02-09T08:08:48.148Z,165.75
2018-02-09T08:11:15.649Z,162.25
2018-02-09T08:13:43.914Z,169.62
2018-02-09T08:16:11.459Z,167.07
2018-02-09T08:18:38.947Z,174.77
2018-02-09T08:21:06.464Z,174.60
2018-02-09T08:23:33.964Z,175.85
2018-02-09T08:26:02.236Z,171.93
2018-02-09T08:28:30.492Z,166.55
2018-02-09T08:30:57.987Z,168.93
2018-02-09T08:33:25.484Z,167.80
2018-02-09T08:35:53.012Z,159.37
2018-02-09T08:38:20.559Z,172.65
2018-02-09T08:40:48.064Z,168.32
2018-02-09T08:43:17.066Z,172.35
2018-02-09T08:45:44.682Z,169.93
2018-02-09T08:48:12.214Z,166.37
2018-02-09T08:50:40.486Z,158.85
2018-02-09T08:53:08.810Z,159.93
2018-02-09T08:55:36.388Z,171.00
2018-02-09T08:58:03.893Z,164.05
2018-02-09T09:00:32.184Z,162.93
2018-02-09T09:02:59.679Z,163.77
2018-02-09T09:05:27.286Z,161.70
2018-02-09T09:07:55.536Z,155.70
2018-02-09T09:10:23.120Z,159.40
2018-02-09T09:12:51.411Z,162.45
2018-02-09T09:15:18.912Z,161.37
2018-02-09T09:17:46.409Z,168.90
2018-02-09T09:20:14.698Z,160.95
2018-02-09T09:22:42.243Z,154.93
2018-02-09T09:25:10.520Z,156.32
2018-02-09T09:27:38.779Z,140.90
2018-02-09T09:30:06.310Z,148.52
2018-02-09T09:32:33.873Z,141.25
2018-02-09T09:35:01.577Z,158.30
2018-02-09T09:37:33.291Z,131.87
2018-02-09T09:40:00.794Z,134.65
2018-02-09T09:42:29.070Z,129.60
2018-02-09T09:44:57.324Z,128.97
2018-02-09T09:47:24.837Z,132.60
2018-02-09T09:49:52.352Z,125.33
2018-02-09T09:52:19.872Z,129.83
2018-02-09T09:54:47.358Z,123.17
2018-02-09T09:57:14.872Z,130.13
2018-02-09T09:59:42.355Z,124.37
2018-02-09T10:02:15.771Z,122.73
2018-02-09T10:04:43.270Z,123.53
2018-02-09T10:07:10.772Z,116.17
2018-02-09T10:09:38.257Z,117.73
2018-02-09T10:12:06.578Z,96.97
2018-02-09T10:14:34.114Z,73.63
2018-02-09T10:17:02.371Z,81.23
2018-02-09T10:19:30.623Z,83.07
2018-02-09T10:21:58.119Z,78.83
2018-02-09T10:24:26.396Z,79.90
2018-02-09T10:26:54.672Z,83.40
2018-02-09T10:29:22.959Z,82.23
2018-02-09T10:31:50.510Z,87.27
2018-02-09T10:34:18.013Z,89.47
2018-02-09T10:36:45.515Z,76.50
2018-02-09T10:39:13.780Z,69.43
2018-02-09T10:41:41.281Z,65.53
2018-02-09T10:44:08.786Z,66.77
2018-02-09T10:46:36.271Z,68.47
2018-02-09T10:49:04.535Z,66.33
2018-02-09T10:51:32.032Z,65.90
2018-02-09T10:53:59.518Z,64.53
2018-02-09T10:56:27.035Z,68.67
2018-02-09T10:58:55.300Z,74.57
2018-02-09T11:01:43.411Z,58.43
2018-02-09T11:04:10.907Z,67.17
2018-02-09T11:06:39.192Z,61.47
2018-02-09T11:09:06.689Z,56.07
2018-02-09T11:11:34.192Z,56.17
2018-02-09T11:14:02.448Z,51.37
2018-02-09T11:16:29.960Z,51.23
2018-02-09T11:18:57.458Z,43.00
2018-02-09T11:21:24.954Z,43.70
2018-02-09T11:23:53.203Z,43.13
2018-02-09T11:26:20.707Z,40.83
2018-02-09T11:28:49.175Z,42.87
2018-02-09T11:31:16.676Z,44.90
2018-02-09T11:33:44.173Z,43.93
2018-02-09T11:36:12.472Z,45.47
2018-02-09T11:38:40.701Z,46.13
2018-02-09T11:41:08.199Z,51.27
2018-02-09T11:43:36.458Z,48.10
2018-02-09T11:46:04.743Z,48.07
2018-02-09T11:48:33.006Z,50.17
2018-02-09T11:51:01.294Z,50.27
2018-02-09T11:53:29.538Z,45.37
2018-02-09T11:55:57.118Z,48.80
2018-02-09T11:58:24.652Z,49.67
2018-02-09T12:00:53.006Z,49.40
2018-02-09T12:03:20.563Z,49.03
2018-02-09T12:05:48.255Z,51.53
2018-02-09T12:08:15.804Z,51.07
2018-02-09T12:10:43.367Z,49.17
2018-02-09T12:13:10.923Z,48.83
2018-02-09T12:15:38.523Z,47.47
2018-02-09T12:18:06.853Z,49.70
2018-02-09T12:20:35.259Z,49.87
2018-02-09T12:23:02.787Z,44.57
2018-02-09T12:25:30.355Z,49.00
2018-02-09T12:27:58.035Z,49.03
2018-02-09T12:30:25.684Z,47.87
2018-02-09T12:32:53.229Z,47.23
2018-02-09T12:35:20.838Z,48.33
2018-02-09T12:37:49.137Z,49.17
2018-02-09T12:40:16.684Z,49.97
2018-02-09T12:42:45.012Z,50.87
2018-02-09T12:45:12.581Z,49.47
2018-02-09T12:47:40.933Z,50.07
2018-02-09T12:50:08.526Z,47.63
2018-02-09T12:52:36.083Z,51.03
2018-02-09T12:55:03.656Z,48.33
2018-02-09T12:57:31.197Z,48.97
2018-02-09T12:59:58.757Z,48.67
2018-02-09T13:02:26.322Z,53.30
2018-02-09T13:04:53.873Z,49.40
2018-02-09T13:07:21.427Z,51.97
2018-02-09T13:09:48.948Z,51.30
2018-02-09T13:12:29.857Z,49.73
2018-02-09T13:14:57.341Z,51.20
2018-02-09T13:17:24.853Z,48.50
2018-02-09T13:19:52.349Z,55.93
2018-02-09T13:22:31.788Z,49.47
2018-02-09T13:24:59.279Z,49.43
2018-02-09T13:27:26.777Z,50.73
2018-02-09T13:29:54.264Z,54.80
2018-02-09T13:32:33.672Z,66.07
2018-02-09T13:35:01.180Z,54.97
2018-02-09T13:37:34.143Z,54.30
2018-02-09T13:40:01.659Z,53.17
2018-02-09T13:42:29.186Z,50.47
2018-02-09T13:44:56.671Z,51.23
2018-02-09T13:47:24.171Z,52.17
2018-02-09T13:49:51.683Z,52.00
2018-02-09T13:52:19.951Z,52.70
2018-02-09T13:54:48.218Z,53.37
2018-02-09T13:57:15.736Z,54.67
2018-02-09T13:59:43.242Z,57.23
2018-02-09T14:02:11.513Z,55.73
2018-02-09T14:04:39.055Z,56.57
2018-02-09T14:07:06.554Z,52.77
2018-02-09T14:09:34.803Z,60.60
2018-02-09T14:12:03.100Z,53.50
2018-02-09T14:14:30.597Z,51.77
2018-02-09T14:16:58.168Z,55.20
2018-02-09T14:19:26.610Z,51.30
2018-02-09T14:21:54.128Z,57.20
2018-02-09T14:24:21.652Z,57.40
2018-02-09T14:26:49.194Z,57.23
2018-02-09T14:29:17.159Z,54.10
2018-02-09T14:31:45.608Z,50.90
2018-02-09T14:34:14.222Z,53.00
2018-02-09T14:36:41.734Z,55.37
2018-02-09T14:39:09.255Z,55.20
2018-02-09T14:41:36.751Z,56.23
2018-02-09T14:44:04.231Z,51.67
2018-02-09T14:46:32.652Z,53.27
2018-02-09T14:49:00.171Z,55.00
2018-02-09T14:51:28.428Z,55.57
2018-02-09T14:56:30.126Z,59.73
2018-02-09T14:58:58.440Z,56.07
2018-02-09T15:01:26.030Z,56.20
2018-02-09T15:03:53.535Z,57.47
2018-02-09T15:06:21.810Z,53.73
2018-02-09T15:08:50.136Z,57.63
2018-02-09T15:11:17.660Z,60.90
2018-02-09T15:13:45.198Z,63.10
2018-02-09T15:16:13.462Z,62.43
2018-02-09T15:18:41.031Z,65.83
2018-02-09T15:21:09.344Z,60.27
2018-02-09T15:23:36.845Z,65.50
2018-02-09T15:26:04.430Z,63.03
2018-02-09T15:28:31.994Z,60.83
2018-02-09T15:30:59.511Z,61.17
2018-02-09T15:33:27.111Z,65.05
2018-02-09T15:35:55.394Z,68.53
2018-02-09T15:38:22.882Z,63.17
2018-02-09T15:40:50.482Z,61.73
2018-02-09T15:43:17.980Z,59.70
2018-02-09T15:45:45.476Z,64.73
2018-02-09T15:48:12.980Z,62.47
2018-02-09T15:50:41.264Z,62.13
2018-02-09T15:53:08.832Z,62.60
2018-02-09T15:55:36.335Z,62.23
2018-02-09T15:58:03.831Z,60.53
2018-02-09T16:00:32.111Z,61.90
2018-02-09T16:02:59.603Z,61.03
2018-02-09T16:05:27.100Z,66.00
2018-02-09T16:07:54.602Z,63.22
2018-02-09T16:10:22.167Z,68.10
2018-02-09T16:12:49.809Z,66.72
2018-02-09T16:15:17.349Z,66.03
2018-02-09T16:17:45.657Z,69.85
2018-02-09T16:20:13.211Z,76.87
2018-02-09T16:22:40.728Z,69.15
2018-02-09T16:25:08.332Z,67.53
2018-02-09T16:27:35.888Z,66.00
2018-02-09T16:30:03.444Z,70.07
2018-02-09T16:32:30.959Z,68.72
2018-02-09T16:34:58.452Z,78.22
2018-02-09T16:37:26.743Z,71.03
2018-02-09T16:39:54.304Z,75.53
2018-02-09T16:42:21.861Z,72.95
2018-02-09T16:44:49.352Z,67.47
2018-02-09T16:47:16.854Z,70.53
2018-02-09T16:49:44.346Z,72.97
2018-02-09T16:52:12.907Z,72.10
2018-02-09T16:54:41.196Z,73.95
2018-02-09T16:57:08.751Z,74.68
2018-02-09T16:59:36.654Z,74.03
2018-02-09T17:02:04.204Z,74.22
2018-02-09T17:04:31.742Z,79.40
2018-02-09T17:07:00.018Z,78.70
2018-02-09T17:09:27.981Z,87.82
2018-02-09T17:11:55.548Z,76.78
2018-02-09T17:14:23.077Z,82.47
2018-02-09T17:16:51.990Z,84.78
2018-02-09T17:19:20.439Z,86.90
2018-02-09T17:21:48.958Z,86.85
2018-02-09T17:24:17.241Z,83.75
2018-02-09T17:26:44.799Z,83.10
2018-02-09T17:29:12.312Z,83.35
2018-02-09T17:31:39.887Z,84.93
2018-02-09T17:34:07.408Z,82.80
2018-02-09T17:36:34.935Z,88.60
2018-02-09T17:39:02.500Z,81.03
2018-02-09T17:41:30.023Z,98.72
2018-02-09T17:43:57.520Z,92.25
2018-02-09T17:46:25.063Z,93.15
2018-02-09T17:48:53.311Z,95.07
2018-02-09T17:51:21.072Z,100.53
2018-02-09T17:53:50.025Z,97.50
2018-02-09T17:56:17.525Z,86.95
2018-02-09T17:58:45.025Z,91.63
2018-02-09T18:01:12.571Z,89.87
2018-02-09T18:03:40.819Z,89.35
2018-02-09T18:06:08.427Z,142.82
2018-02-09T18:08:35.911Z,95.40
2018-02-09T18:11:03.727Z,98.12
2018-02-09T18:13:32.093Z,99.97
2018-02-09T18:16:00.369Z,97.80
2018-02-09T18:18:28.051Z,95.80
2018-02-09T18:20:56.437Z,102.28
2018-02-09T18:23:23.927Z,100.93
2018-02-09T18:25:51.441Z,91.03
2018-02-09T18:28:19.723Z,93.60
2018-02-09T18:30:48.000Z,103.20
2018-02-09T18:33:16.265Z,101.50
2018-02-09T18:35:44.564Z,103.10
2018-02-09T18:38:12.077Z,102.45
2018-02-09T18:40:39.606Z,97.75
2018-02-09T18:43:07.102Z,96.75
2018-02-09T18:45:34.695Z,100.10
2018-02-09T18:48:02.961Z,108.68
2018-02-09T18:50:31.284Z,105.20
2018-02-09T18:52:58.773Z,92.68
2018-02-09T18:55:26.294Z,94.93
2018-02-09T18:57:53.788Z,91.55
2018-02-09T19:00:21.332Z,101.05
2018-02-09T19:02:48.859Z,95.25
2018-02-09T19:05:16.407Z,88.22
2018-02-09T19:07:43.915Z,92.32
2018-02-09T19:10:11.514Z,96.45
2018-02-09T19:12:39.773Z,93.90
2018-02-09T19:15:07.310Z,94.65
2018-02-09T19:17:34.799Z,89.60
2018-02-09T19:20:03.107Z,89.07
2018-02-09T19:22:30.622Z,91.00
2018-02-09T19:24:58.185Z,89.75
2018-02-09T19:27:26.467Z,86.32
2018-02-09T19:29:53.952Z,86.37
2018-02-09T19:32:21.473Z,89.28
2018-02-09T19:34:49.006Z,84.50
2018-02-09T19:37:16.562Z,101.55
2018-02-09T19:39:44.053Z,90.65
2018-02-09T19:42:11.563Z,84.40
2018-02-09T19:44:39.243Z,83.05
2018-02-09T19:47:06.801Z,90.07
2018-02-09T19:49:35.130Z,88.20
2018-02-09T19:52:03.511Z,85.82
2018-02-09T19:54:31.812Z,86.55
2018-02-09T19:56:59.351Z,92.03
2018-02-09T19:59:26.877Z,101.43
2018-02-09T20:01:54.697Z,85.47
2018-02-09T20:04:22.288Z,85.97
2018-02-09T20:06:50.132Z,84.95
2018-02-09T20:09:19.305Z,88.50
2018-02-09T20:11:46.903Z,85.95
2018-02-09T20:14:14.383Z,87.65
2018-02-09T20:16:42.700Z,84.62
2018-02-09T20:19:11.795Z,91.18
2018-02-09T20:21:40.077Z,90.65
2018-02-09T20:24:07.572Z,94.30
2018-02-09T20:26:35.100Z,85.43
2018-02-09T20:29:02.672Z,88.80
2018-02-09T20:31:30.177Z,92.28
2018-02-09T20:33:57.674Z,86.15
2018-02-09T20:36:25.227Z,93.72
2018-02-09T20:38:53.519Z,94.15
2018-02-09T20:41:21.156Z,100.85
2018-02-09T20:43:49.812Z,106.47
2018-02-09T20:46:17.401Z,103.20
2018-02-09T20:48:45.685Z,97.78
2018-02-09T20:51:13.953Z,92.62
2018-02-09T20:53:42.223Z,100.18
2018-02-09T20:56:10.490Z,89.47
2018-02-09T20:58:38.027Z,90.00
2018-02-09T21:01:05.521Z,90.65
2018-02-09T21:03:33.775Z,88.12
2018-02-09T21:06:01.376Z,92.40
2018-02-09T21:08:28.856Z,90.80
2018-02-09T21:10:56.371Z,92.68
2018-02-09T21:13:24.627Z,90.00
2018-02-09T21:15:52.136Z,93.07
2018-02-09T21:18:19.622Z,88.62
2018-02-09T21:20:47.130Z,91.43
2018-02-09T21:23:15.447Z,88.35
2018-02-09T21:25:42.983Z,86.55
2018-02-09T21:28:10.470Z,99.65
2018-02-09T21:30:37.963Z,86.55
2018-02-09T21:33:05.447Z,86.00
2018-02-09T21:35:33.723Z,82.37
2018-02-09T21:38:02.002Z,89.25
2018-02-09T21:40:30.284Z,86.28
2018-02-09T21:42:57.786Z,89.25
2018-02-09T21:45:25.293Z,85.45
2018-02-09T21:47:52.786Z,88.97
2018-02-09T21:50:20.377Z,87.97
2018-02-09T21:52:48.699Z,85.22
2018-02-09T21:55:16.256Z,88.28
2018-02-09T21:57:43.803Z,92.72
2018-02-09T22:00:12.074Z,87.18
2018-02-09T22:02:40.337Z,93.43
2018-02-09T22:05:07.922Z,99.50
2018-02-09T22:07:36.166Z,99.37
2018-02-09T22:10:03.724Z,98.03
2018-02-09T22:12:31.233Z,87.90
2018-02-09T22:14:58.743Z,93.10
2018-02-09T22:17:26.261Z,85.72
2018-02-09T22:19:54.223Z,93.87
2018-02-09T22:22:21.724Z,78.03
2018-02-09T22:24:49.206Z,90.78
2018-02-09T22:27:17.490Z,94.45
2018-02-09T22:29:45.763Z,89.53
2018-02-09T22:32:14.796Z,92.95
2018-02-09T22:34:42.304Z,88.37
2018-02-09T22:37:10.594Z,94.72
2018-02-09T22:39:40.021Z,96.30
2018-02-09T22:42:07.515Z,89.37
2018-02-09T22:44:35.012Z,96.53
2018-02-09T22:47:03.286Z,85.78
2018-02-09T22:49:31.535Z,82.00
2018-02-09T22:51:59.060Z,83.95
2018-02-09T22:54:26.633Z,87.78
2018-02-09T22:56:54.172Z,81.47
2018-02-09T22:59:21.668Z,85.22
2018-02-09T23:01:49.179Z,83.90
2018-02-09T23:04:16.687Z,83.07
2018-02-09T23:06:45.624Z,85.35
2018-02-09T23:09:13.134Z,86.07
2018-02-09T23:11:40.631Z,81.32
2018-02-09T23:14:08.884Z,84.25
2018-02-09T23:16:36.404Z,80.72
2018-02-09T23:19:03.910Z,82.53
2018-02-09T23:21:32.412Z,76.90
2018-02-09T23:23:59.956Z,80.95
2018-02-09T23:26:28.243Z,83.32
2018-02-09T23:28:56.622Z,89.32
2018-02-09T23:31:24.903Z,79.85
2018-02-09T23:33:53.162Z,82.37
2018-02-09T23:36:21.558Z,90.47
2018-02-09T23:38:49.890Z,84.28
2018-02-09T23:41:17.494Z,89.53
2018-02-09T23:43:46.283Z,80.47
2018-02-09T23:46:14.698Z,83.78
2018-02-09T23:48:43.155Z,80.15
2018-02-09T23:51:10.704Z,81.10
2018-02-09T23:53:38.993Z,83.97
2018-02-09T23:56:06.597Z,82.25
2018-02-09T23:58:34.121Z,81.53
